sensor_id;sensor_type;location;lat;lon;timestamp;P1;durP1;ratioP1;P2;durP2;ratioP2
49109;SDS011;34921;52.320;16.142;2023-07-20T00:00:43;6.62;;;3.00;;
49109;SDS011;34921;52.320;16.142;2023-07-20T00:03:29;6.83;;;3.20;;
49109;SDS011;34921;52.320;16.142;2023-07-20T00:05:57;5.55;;;2.87;;
49109;SDS011;34921;52.320;16.142;2023-07-20T00:08:25;7.20;;;3.42;;
49109;SDS011;34921;52.320;16.142;2023-07-20T00:10:53;6.85;;;3.40;;
49109;SDS011;34921;52.320;16.142;2023-07-20T00:13:21;5.22;;;3.12;;
49109;SDS011;34921;52.320;16.142;2023-07-20T00:15:50;7.50;;;3.80;;
49109;SDS011;34921;52.320;16.142;2023-07-20T00:18:19;7.10;;;3.60;;
49109;SDS011;34921;52.320;16.142;2023-07-20T00:20:48;6.92;;;3.25;;
49109;SDS011;34921;52.320;16.142;2023-07-20T00:23:18;6.83;;;3.57;;
49109;SDS011;34921;52.320;16.142;2023-07-20T00:25:50;6.62;;;3.42;;
49109;SDS011;34921;52.320;16.142;2023-07-20T00:28:18;6.80;;;3.30;;
49109;SDS011;34921;52.320;16.142;2023-07-20T00:30:46;7.35;;;3.20;;
49109;SDS011;34921;52.320;16.142;2023-07-20T00:33:17;6.28;;;3.22;;
49109;SDS011;34921;52.320;16.142;2023-07-20T00:35:45;5.53;;;3.20;;
49109;SDS011;34921;52.320;16.142;2023-07-20T00:38:13;5.95;;;3.50;;
49109;SDS011;34921;52.320;16.142;2023-07-20T00:40:41;6.83;;;3.45;;
49109;SDS011;34921;52.320;16.142;2023-07-20T00:43:09;6.53;;;3.33;;
49109;SDS011;34921;52.320;16.142;2023-07-20T00:45:37;6.40;;;3.40;;
49109;SDS011;34921;52.320;16.142;2023-07-20T00:48:06;5.60;;;3.08;;
49109;SDS011;34921;52.320;16.142;2023-07-20T00:50:35;7.47;;;3.77;;
49109;SDS011;34921;52.320;16.142;2023-07-20T00:53:03;8.93;;;3.60;;
49109;SDS011;34921;52.320;16.142;2023-07-20T00:55:34;7.15;;;3.20;;
49109;SDS011;34921;52.320;16.142;2023-07-20T00:58:02;9.23;;;3.60;;
49109;SDS011;34921;52.320;16.142;2023-07-20T01:00:31;8.70;;;3.50;;
49109;SDS011;34921;52.320;16.142;2023-07-20T01:02:59;6.62;;;3.40;;
49109;SDS011;34921;52.320;16.142;2023-07-20T01:05:33;6.05;;;3.12;;
49109;SDS011;34921;52.320;16.142;2023-07-20T01:08:17;6.35;;;3.37;;
49109;SDS011;34921;52.320;16.142;2023-07-20T01:10:54;8.78;;;3.83;;
49109;SDS011;34921;52.320;16.142;2023-07-20T01:13:25;7.20;;;3.72;;
49109;SDS011;34921;52.320;16.142;2023-07-20T01:15:56;7.72;;;3.83;;
49109;SDS011;34921;52.320;16.142;2023-07-20T01:18:26;6.08;;;3.17;;
49109;SDS011;34921;52.320;16.142;2023-07-20T01:20:55;8.58;;;3.47;;
49109;SDS011;34921;52.320;16.142;2023-07-20T01:23:35;7.35;;;4.12;;
49109;SDS011;34921;52.320;16.142;2023-07-20T01:31:59;5.90;;;3.60;;
49109;SDS011;34921;52.320;16.142;2023-07-20T01:34:30;5.62;;;3.35;;
49109;SDS011;34921;52.320;16.142;2023-07-20T01:37:00;6.95;;;3.72;;
49109;SDS011;34921;52.320;16.142;2023-07-20T01:39:28;7.12;;;3.83;;
49109;SDS011;34921;52.320;16.142;2023-07-20T01:41:56;5.33;;;3.22;;
49109;SDS011;34921;52.320;16.142;2023-07-20T01:44:25;8.08;;;3.50;;
49109;SDS011;34921;52.320;16.142;2023-07-20T01:46:53;6.80;;;3.40;;
49109;SDS011;34921;52.320;16.142;2023-07-20T01:49:20;4.92;;;3.20;;
49109;SDS011;34921;52.320;16.142;2023-07-20T01:51:48;8.75;;;3.52;;
49109;SDS011;34921;52.320;16.142;2023-07-20T01:54:16;8.33;;;3.35;;
49109;SDS011;34921;52.320;16.142;2023-07-20T01:56:45;8.13;;;3.72;;
49109;SDS011;34921;52.320;16.142;2023-07-20T01:59:13;6.67;;;3.45;;
49109;SDS011;34921;52.320;16.142;2023-07-20T02:01:41;6.65;;;3.72;;
49109;SDS011;34921;52.320;16.142;2023-07-20T02:04:09;7.53;;;3.45;;
49109;SDS011;34921;52.320;16.142;2023-07-20T02:06:36;9.03;;;3.52;;
49109;SDS011;34921;52.320;16.142;2023-07-20T02:09:05;7.05;;;3.77;;
49109;SDS011;34921;52.320;16.142;2023-07-20T02:11:33;5.80;;;3.67;;
49109;SDS011;34921;52.320;16.142;2023-07-20T02:14:01;6.53;;;3.80;;
49109;SDS011;34921;52.320;16.142;2023-07-20T02:16:29;8.63;;;4.28;;
49109;SDS011;34921;52.320;16.142;2023-07-20T02:18:57;8.53;;;4.67;;
49109;SDS011;34921;52.320;16.142;2023-07-20T02:21:25;7.62;;;4.17;;
49109;SDS011;34921;52.320;16.142;2023-07-20T02:23:53;9.95;;;4.20;;
49109;SDS011;34921;52.320;16.142;2023-07-20T02:26:21;6.65;;;4.22;;
49109;SDS011;34921;52.320;16.142;2023-07-20T02:28:50;11.18;;;4.95;;
49109;SDS011;34921;52.320;16.142;2023-07-20T02:31:18;8.23;;;4.47;;
49109;SDS011;34921;52.320;16.142;2023-07-20T02:33:46;9.23;;;4.90;;
49109;SDS011;34921;52.320;16.142;2023-07-20T02:36:14;8.90;;;4.60;;
49109;SDS011;34921;52.320;16.142;2023-07-20T02:38:44;7.37;;;4.08;;
49109;SDS011;34921;52.320;16.142;2023-07-20T02:41:12;8.93;;;4.12;;
49109;SDS011;34921;52.320;16.142;2023-07-20T02:43:40;6.15;;;4.15;;
49109;SDS011;34921;52.320;16.142;2023-07-20T02:46:08;7.12;;;3.83;;
49109;SDS011;34921;52.320;16.142;2023-07-20T02:48:36;7.35;;;4.40;;
49109;SDS011;34921;52.320;16.142;2023-07-20T02:51:04;7.78;;;4.70;;
49109;SDS011;34921;52.320;16.142;2023-07-20T02:53:32;6.50;;;4.30;;
49109;SDS011;34921;52.320;16.142;2023-07-20T02:56:00;8.65;;;4.17;;
49109;SDS011;34921;52.320;16.142;2023-07-20T02:58:28;7.58;;;4.25;;
49109;SDS011;34921;52.320;16.142;2023-07-20T03:00:56;5.87;;;4.10;;
49109;SDS011;34921;52.320;16.142;2023-07-20T03:03:24;7.70;;;4.75;;
49109;SDS011;34921;52.320;16.142;2023-07-20T03:05:52;7.65;;;5.17;;
49109;SDS011;34921;52.320;16.142;2023-07-20T03:08:21;9.13;;;5.10;;
49109;SDS011;34921;52.320;16.142;2023-07-20T03:10:49;8.43;;;5.03;;
49109;SDS011;34921;52.320;16.142;2023-07-20T03:13:18;8.68;;;4.87;;
49109;SDS011;34921;52.320;16.142;2023-07-20T03:15:45;7.70;;;5.15;;
49109;SDS011;34921;52.320;16.142;2023-07-20T03:18:13;9.53;;;5.20;;
49109;SDS011;34921;52.320;16.142;2023-07-20T03:20:41;6.80;;;4.73;;
49109;SDS011;34921;52.320;16.142;2023-07-20T03:23:09;7.08;;;4.72;;
49109;SDS011;34921;52.320;16.142;2023-07-20T03:25:37;7.37;;;4.95;;
49109;SDS011;34921;52.320;16.142;2023-07-20T03:28:06;6.03;;;4.20;;
49109;SDS011;34921;52.320;16.142;2023-07-20T03:30:34;7.90;;;4.50;;
49109;SDS011;34921;52.320;16.142;2023-07-20T03:33:02;8.25;;;4.75;;
49109;SDS011;34921;52.320;16.142;2023-07-20T03:35:31;7.28;;;4.35;;
49109;SDS011;34921;52.320;16.142;2023-07-20T03:37:59;9.28;;;5.30;;
49109;SDS011;34921;52.320;16.142;2023-07-20T03:40:27;8.53;;;5.00;;
49109;SDS011;34921;52.320;16.142;2023-07-20T03:42:55;9.68;;;5.00;;
49109;SDS011;34921;52.320;16.142;2023-07-20T03:45:23;7.05;;;4.62;;
49109;SDS011;34921;52.320;16.142;2023-07-20T03:47:51;6.00;;;4.20;;
49109;SDS011;34921;52.320;16.142;2023-07-20T03:50:19;9.03;;;4.65;;
49109;SDS011;34921;52.320;16.142;2023-07-20T03:52:47;6.75;;;4.67;;
49109;SDS011;34921;52.320;16.142;2023-07-20T03:55:15;7.97;;;4.35;;
49109;SDS011;34921;52.320;16.142;2023-07-20T03:57:43;7.10;;;4.25;;
49109;SDS011;34921;52.320;16.142;2023-07-20T04:00:11;7.58;;;4.70;;
49109;SDS011;34921;52.320;16.142;2023-07-20T04:02:42;7.33;;;4.53;;
49109;SDS011;34921;52.320;16.142;2023-07-20T04:05:10;9.10;;;4.90;;
49109;SDS011;34921;52.320;16.142;2023-07-20T04:07:38;7.80;;;4.72;;
49109;SDS011;34921;52.320;16.142;2023-07-20T04:10:06;6.87;;;4.35;;
49109;SDS011;34921;52.320;16.142;2023-07-20T04:12:34;7.85;;;4.83;;
49109;SDS011;34921;52.320;16.142;2023-07-20T04:15:03;7.85;;;4.62;;
49109;SDS011;34921;52.320;16.142;2023-07-20T04:17:31;7.08;;;4.78;;
49109;SDS011;34921;52.320;16.142;2023-07-20T04:19:59;7.70;;;4.62;;
49109;SDS011;34921;52.320;16.142;2023-07-20T04:22:27;6.55;;;4.30;;
49109;SDS011;34921;52.320;16.142;2023-07-20T04:24:55;7.58;;;4.58;;
49109;SDS011;34921;52.320;16.142;2023-07-20T04:27:23;7.90;;;4.40;;
49109;SDS011;34921;52.320;16.142;2023-07-20T04:29:51;8.18;;;5.20;;
49109;SDS011;34921;52.320;16.142;2023-07-20T04:32:19;6.37;;;4.85;;
49109;SDS011;34921;52.320;16.142;2023-07-20T04:34:47;7.97;;;4.42;;
49109;SDS011;34921;52.320;16.142;2023-07-20T04:37:15;8.83;;;4.58;;
49109;SDS011;34921;52.320;16.142;2023-07-20T04:39:43;7.33;;;5.15;;
49109;SDS011;34921;52.320;16.142;2023-07-20T04:42:11;10.60;;;4.55;;
49109;SDS011;34921;52.320;16.142;2023-07-20T04:44:38;7.97;;;4.97;;
49109;SDS011;34921;52.320;16.142;2023-07-20T04:47:06;6.25;;;4.28;;
49109;SDS011;34921;52.320;16.142;2023-07-20T04:49:36;7.25;;;4.53;;
49109;SDS011;34921;52.320;16.142;2023-07-20T04:52:04;7.47;;;4.53;;
49109;SDS011;34921;52.320;16.142;2023-07-20T04:54:32;7.97;;;4.58;;
49109;SDS011;34921;52.320;16.142;2023-07-20T04:57:00;8.10;;;4.50;;
49109;SDS011;34921;52.320;16.142;2023-07-20T04:59:28;8.00;;;4.58;;
49109;SDS011;34921;52.320;16.142;2023-07-20T05:01:55;8.03;;;4.22;;
49109;SDS011;34921;52.320;16.142;2023-07-20T05:04:23;6.90;;;5.42;;
49109;SDS011;34921;52.320;16.142;2023-07-20T05:06:51;7.75;;;4.65;;
49109;SDS011;34921;52.320;16.142;2023-07-20T05:09:19;8.55;;;4.90;;
49109;SDS011;34921;52.320;16.142;2023-07-20T05:11:48;6.97;;;4.22;;
49109;SDS011;34921;52.320;16.142;2023-07-20T05:14:16;8.40;;;4.37;;
49109;SDS011;34921;52.320;16.142;2023-07-20T05:16:44;7.37;;;4.60;;
49109;SDS011;34921;52.320;16.142;2023-07-20T05:19:12;7.33;;;4.70;;
49109;SDS011;34921;52.320;16.142;2023-07-20T05:21:40;10.13;;;5.25;;
49109;SDS011;34921;52.320;16.142;2023-07-20T05:24:07;7.85;;;5.00;;
49109;SDS011;34921;52.320;16.142;2023-07-20T05:26:35;9.28;;;4.97;;
49109;SDS011;34921;52.320;16.142;2023-07-20T05:29:03;9.00;;;4.55;;
49109;SDS011;34921;52.320;16.142;2023-07-20T05:31:31;10.75;;;5.40;;
49109;SDS011;34921;52.320;16.142;2023-07-20T05:34:00;7.15;;;4.62;;
49109;SDS011;34921;52.320;16.142;2023-07-20T05:36:28;8.95;;;5.40;;
49109;SDS011;34921;52.320;16.142;2023-07-20T05:38:56;6.55;;;5.08;;
49109;SDS011;34921;52.320;16.142;2023-07-20T05:41:24;8.65;;;5.80;;
49109;SDS011;34921;52.320;16.142;2023-07-20T05:43:52;8.68;;;5.10;;
49109;SDS011;34921;52.320;16.142;2023-07-20T05:46:20;7.05;;;4.50;;
49109;SDS011;34921;52.320;16.142;2023-07-20T05:48:48;8.23;;;5.33;;
49109;SDS011;34921;52.320;16.142;2023-07-20T05:51:16;6.40;;;5.00;;
49109;SDS011;34921;52.320;16.142;2023-07-20T05:53:45;6.92;;;5.22;;
49109;SDS011;34921;52.320;16.142;2023-07-20T05:56:13;7.35;;;5.47;;
49109;SDS011;34921;52.320;16.142;2023-07-20T05:58:42;8.13;;;5.33;;
49109;SDS011;34921;52.320;16.142;2023-07-20T06:01:10;8.87;;;4.77;;
49109;SDS011;34921;52.320;16.142;2023-07-20T06:03:38;8.13;;;5.42;;
49109;SDS011;34921;52.320;16.142;2023-07-20T06:06:06;6.05;;;5.05;;
49109;SDS011;34921;52.320;16.142;2023-07-20T06:11:04;7.75;;;5.03;;
49109;SDS011;34921;52.320;16.142;2023-07-20T06:13:32;8.95;;;4.83;;
49109;SDS011;34921;52.320;16.142;2023-07-20T06:16:00;10.38;;;5.28;;
49109;SDS011;34921;52.320;16.142;2023-07-20T06:18:29;9.28;;;5.83;;
49109;SDS011;34921;52.320;16.142;2023-07-20T06:20:58;7.87;;;5.50;;
49109;SDS011;34921;52.320;16.142;2023-07-20T06:23:26;8.18;;;5.45;;
49109;SDS011;34921;52.320;16.142;2023-07-20T06:25:54;6.53;;;4.90;;
49109;SDS011;34921;52.320;16.142;2023-07-20T06:28:22;6.78;;;4.72;;
49109;SDS011;34921;52.320;16.142;2023-07-20T06:30:50;8.63;;;4.95;;
49109;SDS011;34921;52.320;16.142;2023-07-20T06:33:19;6.67;;;4.57;;
49109;SDS011;34921;52.320;16.142;2023-07-20T06:35:47;8.38;;;5.17;;
49109;SDS011;34921;52.320;16.142;2023-07-20T06:38:16;8.18;;;5.50;;
49109;SDS011;34921;52.320;16.142;2023-07-20T06:40:45;8.20;;;5.85;;
49109;SDS011;34921;52.320;16.142;2023-07-20T06:43:14;8.35;;;5.20;;
49109;SDS011;34921;52.320;16.142;2023-07-20T06:45:42;7.55;;;5.10;;
49109;SDS011;34921;52.320;16.142;2023-07-20T06:48:10;7.87;;;5.00;;
49109;SDS011;34921;52.320;16.142;2023-07-20T06:50:38;8.10;;;5.30;;
49109;SDS011;34921;52.320;16.142;2023-07-20T06:53:06;9.50;;;5.15;;
49109;SDS011;34921;52.320;16.142;2023-07-20T06:55:34;8.95;;;5.08;;
49109;SDS011;34921;52.320;16.142;2023-07-20T06:58:02;8.38;;;4.92;;
49109;SDS011;34921;52.320;16.142;2023-07-20T07:00:30;10.82;;;4.53;;
49109;SDS011;34921;52.320;16.142;2023-07-20T07:02:58;5.83;;;4.15;;
49109;SDS011;34921;52.320;16.142;2023-07-20T07:05:26;6.30;;;4.65;;
49109;SDS011;34921;52.320;16.142;2023-07-20T07:07:54;5.60;;;4.40;;
49109;SDS011;34921;52.320;16.142;2023-07-20T07:10:22;5.58;;;3.85;;
49109;SDS011;34921;52.320;16.142;2023-07-20T07:12:50;7.80;;;4.37;;
49109;SDS011;34921;52.320;16.142;2023-07-20T07:15:18;7.37;;;4.83;;
49109;SDS011;34921;52.320;16.142;2023-07-20T07:17:46;8.13;;;4.55;;
49109;SDS011;34921;52.320;16.142;2023-07-20T07:20:14;5.33;;;4.12;;
49109;SDS011;34921;52.320;16.142;2023-07-20T07:22:42;7.35;;;4.35;;
49109;SDS011;34921;52.320;16.142;2023-07-20T07:25:11;5.75;;;3.62;;
49109;SDS011;34921;52.320;16.142;2023-07-20T07:27:39;5.03;;;3.85;;
49109;SDS011;34921;52.320;16.142;2023-07-20T07:30:07;8.00;;;3.98;;
49109;SDS011;34921;52.320;16.142;2023-07-20T07:32:36;7.05;;;4.15;;
49109;SDS011;34921;52.320;16.142;2023-07-20T07:35:04;9.53;;;4.50;;
49109;SDS011;34921;52.320;16.142;2023-07-20T07:37:32;5.17;;;4.45;;
49109;SDS011;34921;52.320;16.142;2023-07-20T07:40:00;6.33;;;4.60;;
49109;SDS011;34921;52.320;16.142;2023-07-20T07:42:29;7.33;;;5.47;;
49109;SDS011;34921;52.320;16.142;2023-07-20T07:44:57;7.17;;;4.47;;
49109;SDS011;34921;52.320;16.142;2023-07-20T07:47:25;5.92;;;4.65;;
49109;SDS011;34921;52.320;16.142;2023-07-20T07:49:53;7.15;;;4.75;;
49109;SDS011;34921;52.320;16.142;2023-07-20T07:52:21;8.63;;;4.72;;
49109;SDS011;34921;52.320;16.142;2023-07-20T07:54:49;8.55;;;5.30;;
49109;SDS011;34921;52.320;16.142;2023-07-20T07:57:17;7.33;;;5.20;;
49109;SDS011;34921;52.320;16.142;2023-07-20T07:59:45;8.40;;;5.53;;
49109;SDS011;34921;52.320;16.142;2023-07-20T08:02:13;7.30;;;5.47;;
49109;SDS011;34921;52.320;16.142;2023-07-20T08:04:41;10.50;;;5.22;;
49109;SDS011;34921;52.320;16.142;2023-07-20T08:07:09;6.83;;;4.75;;
49109;SDS011;34921;52.320;16.142;2023-07-20T08:09:37;6.83;;;4.47;;
49109;SDS011;34921;52.320;16.142;2023-07-20T08:12:06;6.90;;;4.72;;
49109;SDS011;34921;52.320;16.142;2023-07-20T08:14:34;6.35;;;4.50;;
49109;SDS011;34921;52.320;16.142;2023-07-20T08:17:02;7.03;;;5.30;;
49109;SDS011;34921;52.320;16.142;2023-07-20T08:19:30;9.68;;;5.65;;
49109;SDS011;34921;52.320;16.142;2023-07-20T08:24:28;14.60;;;6.10;;
49109;SDS011;34921;52.320;16.142;2023-07-20T08:26:56;7.65;;;5.80;;
49109;SDS011;34921;52.320;16.142;2023-07-20T08:29:24;6.45;;;3.67;;
49109;SDS011;34921;52.320;16.142;2023-07-20T08:31:52;5.15;;;2.87;;
49109;SDS011;34921;52.320;16.142;2023-07-20T08:34:20;4.80;;;2.70;;
49109;SDS011;34921;52.320;16.142;2023-07-20T08:36:48;3.42;;;2.50;;
49109;SDS011;34921;52.320;16.142;2023-07-20T08:39:16;4.70;;;2.70;;
49109;SDS011;34921;52.320;16.142;2023-07-20T08:41:46;3.72;;;2.55;;
49109;SDS011;34921;52.320;16.142;2023-07-20T08:44:14;4.30;;;2.22;;
49109;SDS011;34921;52.320;16.142;2023-07-20T08:46:42;5.92;;;2.30;;
49109;SDS011;34921;52.320;16.142;2023-07-20T08:49:11;3.75;;;2.10;;
49109;SDS011;34921;52.320;16.142;2023-07-20T08:51:39;4.33;;;1.95;;
49109;SDS011;34921;52.320;16.142;2023-07-20T08:54:08;3.47;;;2.20;;
49109;SDS011;34921;52.320;16.142;2023-07-20T08:56:38;4.85;;;1.80;;
49109;SDS011;34921;52.320;16.142;2023-07-20T08:59:10;5.03;;;1.90;;
49109;SDS011;34921;52.320;16.142;2023-07-20T09:01:40;3.22;;;1.75;;
49109;SDS011;34921;52.320;16.142;2023-07-20T09:04:09;3.27;;;1.80;;
49109;SDS011;34921;52.320;16.142;2023-07-20T09:06:37;4.45;;;2.30;;
49109;SDS011;34921;52.320;16.142;2023-07-20T09:09:05;4.55;;;2.40;;
49109;SDS011;34921;52.320;16.142;2023-07-20T09:11:33;6.37;;;2.40;;
49109;SDS011;34921;52.320;16.142;2023-07-20T09:14:09;3.85;;;2.10;;
49109;SDS011;34921;52.320;16.142;2023-07-20T09:19:16;4.35;;;2.35;;
49109;SDS011;34921;52.320;16.142;2023-07-20T09:21:45;4.87;;;2.72;;
49109;SDS011;34921;52.320;16.142;2023-07-20T09:24:15;3.37;;;2.05;;
49109;SDS011;34921;52.320;16.142;2023-07-20T09:26:47;3.10;;;2.45;;
49109;SDS011;34921;52.320;16.142;2023-07-20T09:29:19;3.45;;;1.95;;
49109;SDS011;34921;52.320;16.142;2023-07-20T09:32:00;4.75;;;2.30;;
49109;SDS011;34921;52.320;16.142;2023-07-20T09:34:30;3.47;;;2.12;;
49109;SDS011;34921;52.320;16.142;2023-07-20T09:37:01;3.83;;;1.98;;
49109;SDS011;34921;52.320;16.142;2023-07-20T09:39:29;4.35;;;2.05;;
49109;SDS011;34921;52.320;16.142;2023-07-20T09:42:00;3.67;;;2.45;;
49109;SDS011;34921;52.320;16.142;2023-07-20T09:44:29;4.15;;;2.30;;
49109;SDS011;34921;52.320;16.142;2023-07-20T09:46:57;4.95;;;2.62;;
49109;SDS011;34921;52.320;16.142;2023-07-20T09:49:25;4.70;;;2.65;;
49109;SDS011;34921;52.320;16.142;2023-07-20T09:51:53;3.50;;;2.45;;
49109;SDS011;34921;52.320;16.142;2023-07-20T09:54:21;5.72;;;2.45;;
49109;SDS011;34921;52.320;16.142;2023-07-20T09:56:50;4.72;;;2.62;;
49109;SDS011;34921;52.320;16.142;2023-07-20T09:59:20;4.43;;;2.70;;
49109;SDS011;34921;52.320;16.142;2023-07-20T10:01:48;4.15;;;2.62;;
49109;SDS011;34921;52.320;16.142;2023-07-20T10:04:16;4.45;;;2.83;;
49109;SDS011;34921;52.320;16.142;2023-07-20T10:06:46;4.28;;;2.50;;
49109;SDS011;34921;52.320;16.142;2023-07-20T10:09:15;3.05;;;2.30;;
49109;SDS011;34921;52.320;16.142;2023-07-20T10:11:45;4.58;;;2.92;;
49109;SDS011;34921;52.320;16.142;2023-07-20T10:14:20;5.37;;;2.80;;
49109;SDS011;34921;52.320;16.142;2023-07-20T10:16:51;4.05;;;2.40;;
49109;SDS011;34921;52.320;16.142;2023-07-20T10:22:19;2.10;;;1.30;;
49109;SDS011;34921;52.320;16.142;2023-07-20T10:24:53;2.30;;;1.47;;
49109;SDS011;34921;52.320;16.142;2023-07-20T10:27:21;2.47;;;1.30;;
49109;SDS011;34921;52.320;16.142;2023-07-20T10:29:50;2.77;;;1.20;;
49109;SDS011;34921;52.320;16.142;2023-07-20T10:32:19;2.47;;;1.20;;
49109;SDS011;34921;52.320;16.142;2023-07-20T10:34:51;2.05;;;1.00;;
49109;SDS011;34921;52.320;16.142;2023-07-20T10:43:21;1.95;;;0.98;;
49109;SDS011;34921;52.320;16.142;2023-07-20T10:45:51;2.10;;;1.00;;
49109;SDS011;34921;52.320;16.142;2023-07-20T10:48:21;1.65;;;0.90;;
49109;SDS011;34921;52.320;16.142;2023-07-20T10:53:43;2.80;;;1.10;;
49109;SDS011;34921;52.320;16.142;2023-07-20T10:56:12;1.67;;;0.80;;
49109;SDS011;34921;52.320;16.142;2023-07-20T10:58:41;1.98;;;0.95;;
49109;SDS011;34921;52.320;16.142;2023-07-20T11:01:12;2.08;;;1.00;;
49109;SDS011;34921;52.320;16.142;2023-07-20T11:03:42;2.15;;;0.93;;
49109;SDS011;34921;52.320;16.142;2023-07-20T11:11:43;1.92;;;1.20;;
49109;SDS011;34921;52.320;16.142;2023-07-20T11:14:24;2.05;;;1.00;;
49109;SDS011;34921;52.320;16.142;2023-07-20T11:16:53;2.05;;;0.90;;
49109;SDS011;34921;52.320;16.142;2023-07-20T11:19:26;1.60;;;1.00;;
49109;SDS011;34921;52.320;16.142;2023-07-20T11:21:55;2.05;;;1.17;;
49109;SDS011;34921;52.320;16.142;2023-07-20T11:24:24;2.95;;;0.90;;
49109;SDS011;34921;52.320;16.142;2023-07-20T11:26:52;1.90;;;1.07;;
49109;SDS011;34921;52.320;16.142;2023-07-20T11:29:22;2.22;;;0.95;;
49109;SDS011;34921;52.320;16.142;2023-07-20T11:31:52;1.60;;;1.00;;
49109;SDS011;34921;52.320;16.142;2023-07-20T11:34:20;1.80;;;1.00;;
49109;SDS011;34921;52.320;16.142;2023-07-20T11:36:49;1.98;;;0.95;;
49109;SDS011;34921;52.320;16.142;2023-07-20T11:39:18;4.07;;;1.00;;
49109;SDS011;34921;52.320;16.142;2023-07-20T11:41:47;1.37;;;0.70;;
49109;SDS011;34921;52.320;16.142;2023-07-20T11:44:17;1.82;;;0.70;;
49109;SDS011;34921;52.320;16.142;2023-07-20T11:46:46;2.25;;;0.82;;
49109;SDS011;34921;52.320;16.142;2023-07-20T11:49:14;1.27;;;0.62;;
49109;SDS011;34921;52.320;16.142;2023-07-20T11:51:42;1.32;;;0.70;;
49109;SDS011;34921;52.320;16.142;2023-07-20T11:54:10;2.60;;;0.90;;
49109;SDS011;34921;52.320;16.142;2023-07-20T11:56:41;1.90;;;0.75;;
49109;SDS011;34921;52.320;16.142;2023-07-20T11:59:10;1.40;;;0.70;;
49109;SDS011;34921;52.320;16.142;2023-07-20T12:01:38;1.72;;;0.70;;
49109;SDS011;34921;52.320;16.142;2023-07-20T12:04:06;1.92;;;0.80;;
49109;SDS011;34921;52.320;16.142;2023-07-20T12:09:04;1.72;;;0.90;;
49109;SDS011;34921;52.320;16.142;2023-07-20T12:11:36;1.55;;;0.78;;
49109;SDS011;34921;52.320;16.142;2023-07-20T12:14:09;1.57;;;0.65;;
49109;SDS011;34921;52.320;16.142;2023-07-20T12:16:37;2.45;;;0.75;;
49109;SDS011;34921;52.320;16.142;2023-07-20T12:19:06;1.67;;;0.60;;
49109;SDS011;34921;52.320;16.142;2023-07-20T12:24:04;1.77;;;0.88;;
49109;SDS011;34921;52.320;16.142;2023-07-20T12:26:33;1.67;;;0.70;;
49109;SDS011;34921;52.320;16.142;2023-07-20T12:29:01;2.67;;;0.90;;
49109;SDS011;34921;52.320;16.142;2023-07-20T12:31:36;1.85;;;0.80;;
49109;SDS011;34921;52.320;16.142;2023-07-20T12:41:53;2.12;;;0.90;;
49109;SDS011;34921;52.320;16.142;2023-07-20T12:44:21;2.65;;;0.88;;
49109;SDS011;34921;52.320;16.142;2023-07-20T12:46:49;1.42;;;0.60;;
49109;SDS011;34921;52.320;16.142;2023-07-20T12:49:17;2.00;;;0.78;;
49109;SDS011;34921;52.320;16.142;2023-07-20T12:51:45;1.90;;;0.80;;
49109;SDS011;34921;52.320;16.142;2023-07-20T12:54:13;2.83;;;0.98;;
49109;SDS011;34921;52.320;16.142;2023-07-20T12:56:41;1.25;;;0.55;;
49109;SDS011;34921;52.320;16.142;2023-07-20T12:59:09;3.10;;;0.90;;
49109;SDS011;34921;52.320;16.142;2023-07-20T13:01:38;1.65;;;0.75;;
49109;SDS011;34921;52.320;16.142;2023-07-20T13:04:08;2.15;;;0.90;;
49109;SDS011;34921;52.320;16.142;2023-07-20T13:06:37;1.70;;;0.75;;
49109;SDS011;34921;52.320;16.142;2023-07-20T13:09:05;1.60;;;0.80;;
49109;SDS011;34921;52.320;16.142;2023-07-20T13:11:33;1.85;;;0.90;;
49109;SDS011;34921;52.320;16.142;2023-07-20T13:14:01;2.00;;;0.80;;
49109;SDS011;34921;52.320;16.142;2023-07-20T13:16:29;2.30;;;0.80;;
49109;SDS011;34921;52.320;16.142;2023-07-20T13:18:57;1.90;;;0.82;;
49109;SDS011;34921;52.320;16.142;2023-07-20T13:21:25;1.30;;;0.85;;
49109;SDS011;34921;52.320;16.142;2023-07-20T13:23:54;1.77;;;0.85;;
49109;SDS011;34921;52.320;16.142;2023-07-20T13:26:22;2.10;;;0.80;;
49109;SDS011;34921;52.320;16.142;2023-07-20T13:28:50;2.87;;;0.95;;
49109;SDS011;34921;52.320;16.142;2023-07-20T13:33:49;1.20;;;0.70;;
49109;SDS011;34921;52.320;16.142;2023-07-20T13:36:17;2.02;;;0.75;;
49109;SDS011;34921;52.320;16.142;2023-07-20T13:38:45;1.82;;;0.85;;
49109;SDS011;34921;52.320;16.142;2023-07-20T13:41:13;2.00;;;0.80;;
49109;SDS011;34921;52.320;16.142;2023-07-20T13:43:41;1.52;;;0.80;;
49109;SDS011;34921;52.320;16.142;2023-07-20T13:46:09;1.47;;;0.78;;
49109;SDS011;34921;52.320;16.142;2023-07-20T13:48:37;1.80;;;0.90;;
49109;SDS011;34921;52.320;16.142;2023-07-20T13:51:05;2.52;;;0.88;;
49109;SDS011;34921;52.320;16.142;2023-07-20T13:53:33;1.65;;;0.80;;
49109;SDS011;34921;52.320;16.142;2023-07-20T13:56:01;1.15;;;0.70;;
49109;SDS011;34921;52.320;16.142;2023-07-20T14:01:00;1.72;;;0.82;;
49109;SDS011;34921;52.320;16.142;2023-07-20T14:03:28;2.33;;;0.80;;
49109;SDS011;34921;52.320;16.142;2023-07-20T14:05:56;2.77;;;0.72;;
49109;SDS011;34921;52.320;16.142;2023-07-20T14:08:24;2.27;;;0.78;;
49109;SDS011;34921;52.320;16.142;2023-07-20T14:10:52;2.35;;;0.78;;
49109;SDS011;34921;52.320;16.142;2023-07-20T14:13:20;2.45;;;0.70;;
49109;SDS011;34921;52.320;16.142;2023-07-20T14:15:47;2.65;;;0.90;;
49109;SDS011;34921;52.320;16.142;2023-07-20T14:18:17;1.90;;;0.78;;
49109;SDS011;34921;52.320;16.142;2023-07-20T14:20:45;2.15;;;0.82;;
49109;SDS011;34921;52.320;16.142;2023-07-20T14:23:13;1.57;;;0.70;;
49109;SDS011;34921;52.320;16.142;2023-07-20T14:25:41;2.80;;;0.75;;
49109;SDS011;34921;52.320;16.142;2023-07-20T14:28:10;1.25;;;0.60;;
49109;SDS011;34921;52.320;16.142;2023-07-20T14:33:10;1.77;;;0.65;;
49109;SDS011;34921;52.320;16.142;2023-07-20T14:35:38;4.67;;;0.80;;
49109;SDS011;34921;52.320;16.142;2023-07-20T14:38:06;2.62;;;1.00;;
49109;SDS011;34921;52.320;16.142;2023-07-20T14:40:35;1.50;;;0.65;;
49109;SDS011;34921;52.320;16.142;2023-07-20T14:43:03;2.72;;;0.68;;
49109;SDS011;34921;52.320;16.142;2023-07-20T14:45:31;2.75;;;0.68;;
49109;SDS011;34921;52.320;16.142;2023-07-20T14:48:00;1.47;;;0.60;;
49109;SDS011;34921;52.320;16.142;2023-07-20T14:52:58;4.53;;;1.27;;
49109;SDS011;34921;52.320;16.142;2023-07-20T14:55:26;4.28;;;1.00;;
49109;SDS011;34921;52.320;16.142;2023-07-20T14:57:54;5.37;;;1.72;;
49109;SDS011;34921;52.320;16.142;2023-07-20T15:02:52;3.08;;;0.80;;
49109;SDS011;34921;52.320;16.142;2023-07-20T15:07:55;2.58;;;0.70;;
49109;SDS011;34921;52.320;16.142;2023-07-20T15:10:23;2.40;;;0.90;;
49109;SDS011;34921;52.320;16.142;2023-07-20T15:12:55;0.88;;;0.50;;
49109;SDS011;34921;52.320;16.142;2023-07-20T15:15:23;1.42;;;0.60;;
49109;SDS011;34921;52.320;16.142;2023-07-20T15:17:52;1.30;;;0.70;;
49109;SDS011;34921;52.320;16.142;2023-07-20T15:20:21;1.65;;;0.80;;
49109;SDS011;34921;52.320;16.142;2023-07-20T15:22:50;1.85;;;0.70;;
49109;SDS011;34921;52.320;16.142;2023-07-20T15:25:18;1.70;;;0.70;;
49109;SDS011;34921;52.320;16.142;2023-07-20T15:30:19;3.73;;;0.83;;
49109;SDS011;34921;52.320;16.142;2023-07-20T15:35:24;3.08;;;0.70;;
49109;SDS011;34921;52.320;16.142;2023-07-20T15:37:52;1.40;;;0.70;;
49109;SDS011;34921;52.320;16.142;2023-07-20T15:40:21;1.20;;;0.60;;
49109;SDS011;34921;52.320;16.142;2023-07-20T15:42:50;1.67;;;0.60;;
49109;SDS011;34921;52.320;16.142;2023-07-20T15:45:19;0.97;;;0.50;;